createdAt,value
2023-03-05T00:00:20.256Z,7.85
2023-03-05T00:02:47.774Z,7.88
2023-03-05T00:05:15.401Z,8.40
2023-03-05T00:07:43.473Z,7.63
2023-03-05T00:10:13.235Z,7.07
2023-03-05T00:12:40.807Z,8.05
2023-03-05T00:15:10.249Z,7.82
2023-03-05T00:17:37.821Z,8.32
2023-03-05T00:20:06.022Z,8.13
2023-03-05T00:22:36.009Z,7.40
2023-03-05T00:25:04.009Z,8.35
2023-03-05T00:27:32.927Z,8.20
2023-03-05T00:30:00.812Z,8.63
2023-03-05T00:32:28.403Z,8.63
2023-03-05T00:34:56.207Z,8.23
2023-03-05T00:37:23.759Z,8.68
2023-03-05T00:39:52.266Z,8.32
2023-03-05T00:42:20.058Z,9.07
2023-03-05T00:44:49.109Z,9.27
2023-03-05T00:47:18.338Z,9.27
2023-03-05T00:49:46.534Z,8.38
2023-03-05T00:52:14.143Z,9.60
2023-03-05T00:54:41.923Z,8.05
2023-03-05T00:57:10.061Z,8.90
2023-03-05T00:59:37.590Z,8.77
2023-03-05T01:02:06.662Z,8.85
2023-03-05T01:04:34.675Z,9.05
2023-03-05T01:07:02.311Z,9.02
2023-03-05T01:09:30.414Z,9.90
2023-03-05T01:11:58.125Z,8.40
2023-03-05T01:14:27.922Z,8.95
2023-03-05T01:16:55.501Z,9.02
2023-03-05T01:19:24.595Z,8.60
2023-03-05T01:21:52.229Z,9.15
2023-03-05T01:24:19.767Z,9.37
2023-03-05T01:26:47.904Z,9.05
2023-03-05T01:29:15.431Z,9.25
2023-03-05T01:31:43.476Z,8.75
2023-03-05T01:34:11.427Z,8.80
2023-03-05T01:36:42.197Z,9.70
2023-03-05T01:39:09.895Z,9.45
2023-03-05T01:41:37.511Z,9.73
2023-03-05T01:44:05.223Z,9.60
2023-03-05T01:46:38.246Z,9.68
2023-03-05T01:49:17.146Z,8.93
2023-03-05T01:51:52.760Z,9.20
2023-03-05T01:54:23.478Z,9.23
2023-03-05T01:56:53.706Z,8.82
2023-03-05T01:59:23.029Z,8.55
2023-03-05T02:01:54.369Z,9.67
2023-03-05T02:04:24.688Z,9.32
2023-03-05T02:06:53.678Z,8.48
2023-03-05T02:09:23.293Z,8.93
2023-03-05T02:11:51.258Z,9.32
2023-03-05T02:14:20.942Z,9.33
2023-03-05T02:16:48.650Z,8.75
2023-03-05T02:19:16.638Z,8.77
2023-03-05T02:21:47.856Z,8.50
2023-03-05T02:24:16.987Z,8.55
2023-03-05T02:26:45.631Z,9.50
2023-03-05T02:29:18.467Z,9.07
2023-03-05T02:31:46.125Z,8.95
2023-03-05T02:34:13.847Z,8.75
2023-03-05T02:36:41.410Z,9.23
2023-03-05T02:39:10.769Z,8.37
2023-03-05T02:41:38.465Z,8.60
2023-03-05T02:44:06.356Z,8.15
2023-03-05T02:46:34.071Z,8.02
2023-03-05T02:49:01.966Z,8.50
2023-03-05T02:51:29.520Z,9.23
2023-03-05T02:53:57.051Z,7.07
2023-03-05T02:56:26.372Z,8.20
2023-03-05T02:58:54.227Z,8.18
2023-03-05T03:01:21.857Z,7.07
2023-03-05T03:03:49.722Z,6.53
2023-03-05T03:06:17.503Z,7.80
2023-03-05T03:08:45.412Z,14.77
2023-03-05T03:11:14.182Z,8.05
2023-03-05T03:13:43.136Z,8.23
2023-03-05T03:16:15.579Z,6.50
2023-03-05T03:18:44.299Z,6.13
2023-03-05T03:21:18.282Z,6.32
2023-03-05T03:23:46.361Z,6.95
2023-03-05T03:26:14.235Z,6.28
2023-03-05T03:28:43.345Z,5.83
2023-03-05T03:31:10.995Z,6.10
2023-03-05T03:33:38.746Z,5.22
2023-03-05T03:36:07.354Z,5.50
2023-03-05T03:38:34.898Z,5.22
2023-03-05T03:41:02.942Z,5.27
2023-03-05T03:43:30.663Z,5.28
2023-03-05T03:45:59.596Z,4.78
2023-03-05T03:48:27.380Z,5.40
2023-03-05T03:50:54.907Z,5.88
2023-03-05T03:53:22.539Z,5.90
2023-03-05T03:55:50.324Z,5.75
2023-03-05T03:58:18.004Z,5.63
2023-03-05T04:00:45.703Z,5.35
2023-03-05T04:03:14.594Z,5.93
2023-03-05T04:05:42.383Z,5.77
2023-03-05T04:08:12.522Z,5.90
2023-03-05T04:10:40.508Z,6.90
2023-03-05T04:13:08.526Z,6.70
2023-03-05T04:15:36.361Z,6.28
2023-03-05T04:18:04.182Z,6.60
2023-03-05T04:20:33.209Z,6.43
2023-03-05T04:23:01.079Z,7.25
2023-03-05T04:25:28.618Z,5.95
2023-03-05T04:27:56.160Z,5.43
2023-03-05T04:30:23.836Z,6.13
2023-03-05T04:32:51.570Z,6.53
2023-03-05T04:35:19.567Z,7.00
2023-03-05T04:37:48.703Z,6.93
2023-03-05T04:40:16.568Z,6.53
2023-03-05T04:42:44.756Z,6.87
2023-03-05T04:45:13.303Z,6.88
2023-03-05T04:47:41.046Z,9.70
2023-03-05T04:50:10.356Z,6.60
2023-03-05T04:52:40.148Z,6.53
2023-03-05T04:55:10.706Z,6.60
2023-03-05T04:57:38.739Z,6.93
2023-03-05T05:00:09.393Z,6.63
2023-03-05T05:02:37.146Z,6.78
2023-03-05T05:05:04.944Z,7.00
2023-03-05T05:07:33.180Z,7.00
2023-03-05T05:10:00.711Z,6.82
2023-03-05T05:12:31.153Z,6.97
2023-03-05T05:14:59.264Z,6.30
2023-03-05T05:17:27.776Z,6.32
2023-03-05T05:19:55.436Z,6.83
2023-03-05T05:22:24.152Z,6.63
2023-03-05T05:24:51.743Z,6.88
2023-03-05T05:27:19.538Z,6.03
2023-03-05T05:29:50.513Z,5.40
2023-03-05T05:32:18.309Z,5.53
2023-03-05T05:34:45.885Z,6.43
2023-03-05T05:37:13.695Z,6.78
2023-03-05T05:39:49.984Z,6.40
2023-03-05T05:42:18.149Z,6.45
2023-03-05T05:44:46.960Z,7.17
2023-03-05T05:47:16.501Z,6.80
2023-03-05T05:49:44.668Z,6.88
2023-03-05T05:52:13.217Z,7.00
2023-03-05T05:54:40.971Z,7.00
2023-03-05T05:57:09.109Z,6.27
2023-03-05T05:59:37.393Z,6.60
2023-03-05T06:02:05.500Z,6.55
2023-03-05T06:04:34.917Z,6.85
2023-03-05T06:07:03.300Z,7.18
2023-03-05T06:09:31.217Z,7.33
2023-03-05T06:11:58.718Z,7.70
2023-03-05T06:14:26.689Z,7.05
2023-03-05T06:16:54.263Z,6.57
2023-03-05T06:19:22.079Z,6.80
2023-03-05T06:21:51.223Z,6.80
2023-03-05T06:24:19.766Z,7.15
2023-03-05T06:26:48.718Z,7.38
2023-03-05T06:29:16.903Z,8.18
2023-03-05T06:31:44.440Z,7.75
2023-03-05T06:34:13.425Z,7.93
2023-03-05T06:36:43.547Z,6.07
2023-03-05T06:39:12.464Z,7.25
2023-03-05T06:41:40.524Z,6.78
2023-03-05T06:44:08.073Z,6.60
2023-03-05T06:46:39.075Z,6.03
2023-03-05T06:49:07.117Z,6.13
2023-03-05T06:51:37.055Z,6.90
2023-03-05T06:54:08.035Z,5.68
2023-03-05T06:56:38.934Z,6.57
2023-03-05T06:59:07.359Z,5.80
2023-03-05T07:01:35.701Z,5.78
2023-03-05T07:04:03.894Z,5.93
2023-03-05T07:06:34.627Z,5.40
2023-03-05T07:09:03.301Z,4.97
2023-03-05T07:11:31.465Z,5.63
2023-03-05T07:14:00.801Z,5.25
2023-03-05T07:16:30.720Z,4.97
2023-03-05T07:18:59.765Z,4.30
2023-03-05T07:21:29.489Z,4.35
2023-03-05T07:23:59.165Z,4.30
2023-03-05T07:26:27.604Z,4.57
2023-03-05T07:28:55.913Z,4.90
2023-03-05T07:31:27.723Z,5.88
2023-03-05T07:33:55.322Z,5.15
2023-03-05T07:36:23.458Z,4.97
2023-03-05T07:38:51.780Z,5.57
2023-03-05T07:41:21.928Z,4.40
2023-03-05T07:43:51.449Z,5.00
2023-03-05T07:46:21.408Z,4.57
2023-03-05T07:48:50.779Z,4.63
2023-03-05T07:51:20.401Z,5.40
2023-03-05T07:53:49.512Z,5.10
2023-03-05T07:56:23.508Z,6.82
2023-03-05T07:58:51.395Z,6.03
2023-03-05T08:01:19.404Z,10.40
2023-03-05T08:03:47.014Z,7.82
2023-03-05T08:06:15.950Z,9.52
2023-03-05T08:08:43.686Z,10.40
2023-03-05T08:11:13.121Z,7.15
2023-03-05T08:13:41.040Z,9.23
2023-03-05T08:16:12.607Z,8.20
2023-03-05T08:18:40.193Z,8.07
2023-03-05T08:21:07.834Z,7.95
2023-03-05T08:23:37.301Z,7.45
2023-03-05T08:26:14.093Z,7.20
2023-03-05T08:28:41.982Z,6.97
2023-03-05T08:31:11.027Z,6.50
2023-03-05T08:33:39.688Z,5.68
2023-03-05T08:36:08.593Z,5.97
2023-03-05T08:38:37.951Z,5.87
2023-03-05T08:41:06.970Z,6.85
2023-03-05T08:43:34.943Z,6.72
2023-03-05T08:46:03.569Z,7.15
2023-03-05T08:48:31.773Z,6.78
2023-03-05T08:51:05.455Z,6.90
2023-03-05T08:53:33.096Z,6.80
2023-03-05T08:56:02.504Z,6.30
2023-03-05T08:58:30.737Z,5.68
2023-03-05T09:00:58.475Z,5.47
2023-03-05T09:03:27.006Z,7.20
2023-03-05T09:05:54.606Z,5.18
2023-03-05T09:08:22.412Z,4.63
2023-03-05T09:10:50.095Z,5.10
2023-03-05T09:13:19.198Z,4.97
2023-03-05T09:15:55.617Z,3.90
2023-03-05T09:18:26.280Z,4.80
2023-03-05T09:20:54.124Z,4.68
2023-03-05T09:23:22.464Z,5.00
2023-03-05T09:25:50.172Z,4.00
2023-03-05T09:28:20.403Z,5.43
2023-03-05T09:30:48.097Z,4.22
2023-03-05T09:33:15.642Z,4.80
2023-03-05T09:35:45.954Z,4.30
2023-03-05T09:38:15.497Z,3.88
2023-03-05T09:41:02.298Z,2.93
2023-03-05T09:43:47.189Z,2.55
2023-03-05T09:46:27.019Z,2.85
2023-03-05T09:49:06.289Z,3.03
2023-03-05T09:51:38.772Z,4.43
2023-03-05T09:54:14.507Z,5.53
2023-03-05T09:56:45.421Z,6.40
2023-03-05T09:59:25.005Z,5.28
2023-03-05T10:01:54.667Z,3.15
2023-03-05T10:04:26.973Z,4.75
2023-03-05T10:07:02.907Z,3.80
2023-03-05T10:09:44.085Z,2.63
2023-03-05T10:12:21.146Z,2.17
2023-03-05T10:14:50.501Z,2.25
2023-03-05T10:17:55.268Z,2.55
2023-03-05T10:20:37.508Z,2.33
2023-03-05T10:23:34.681Z,2.70
2023-03-05T10:26:14.803Z,2.10
2023-03-05T10:28:48.273Z,2.25
2023-03-05T10:31:30.732Z,1.90
2023-03-05T10:34:25.515Z,2.53
2023-03-05T10:37:05.492Z,2.50
2023-03-05T10:39:50.888Z,2.00
2023-03-05T10:42:26.697Z,2.75
2023-03-05T10:44:57.384Z,2.03
2023-03-05T10:47:31.027Z,2.77
2023-03-05T10:50:00.022Z,2.70
2023-03-05T10:52:33.522Z,3.63
2023-03-05T10:55:01.085Z,2.42
2023-03-05T10:57:32.261Z,1.60
2023-03-05T11:00:08.035Z,2.07
2023-03-05T11:02:55.414Z,1.58
2023-03-05T11:05:47.100Z,2.10
2023-03-05T11:08:26.339Z,1.17
2023-03-05T11:11:05.202Z,2.22
2023-03-05T11:13:34.466Z,1.40
2023-03-05T11:16:03.879Z,1.60
2023-03-05T11:18:34.787Z,1.90
2023-03-05T11:21:11.836Z,1.25
2023-03-05T11:23:39.730Z,0.90
2023-03-05T11:26:20.154Z,1.00
2023-03-05T11:28:59.011Z,1.60
2023-03-05T11:31:28.641Z,0.80
2023-03-05T11:34:01.001Z,1.30
2023-03-05T11:36:31.831Z,1.20
2023-03-05T11:39:09.545Z,2.53
2023-03-05T11:41:40.302Z,1.80
2023-03-05T11:44:15.332Z,1.50
2023-03-05T11:46:45.662Z,2.20
2023-03-05T11:49:19.097Z,2.85
2023-03-05T11:51:54.088Z,4.60
2023-03-05T11:54:27.593Z,3.58
2023-03-05T11:56:55.793Z,3.53
2023-03-05T11:59:29.430Z,3.22
2023-03-05T12:01:58.633Z,3.72
2023-03-05T12:04:28.524Z,3.60
2023-03-05T12:06:58.937Z,2.20
2023-03-05T12:09:34.284Z,1.95
2023-03-05T12:12:08.405Z,1.63
2023-03-05T12:14:43.105Z,1.90
2023-03-05T12:17:18.412Z,1.80
2023-03-05T12:19:52.934Z,2.50
2023-03-05T12:22:24.052Z,2.63
2023-03-05T12:24:52.107Z,2.17
2023-03-05T12:27:34.410Z,1.65
2023-03-05T12:30:02.397Z,2.73
2023-03-05T12:33:00.982Z,3.38
2023-03-05T12:35:37.885Z,3.30
2023-03-05T12:38:30.354Z,3.45
2023-03-05T12:41:34.576Z,3.90
2023-03-05T12:44:19.440Z,2.83
2023-03-05T12:47:07.684Z,1.92
2023-03-05T12:49:39.802Z,2.00
2023-03-05T12:52:25.482Z,1.92
2023-03-05T12:55:03.991Z,1.80
2023-03-05T12:57:32.589Z,1.40
2023-03-05T13:00:08.425Z,1.10
2023-03-05T13:02:41.737Z,1.45
2023-03-05T13:05:21.906Z,1.92
2023-03-05T13:07:52.616Z,3.55
2023-03-05T13:10:26.959Z,3.50
2023-03-05T13:12:57.871Z,3.70
2023-03-05T13:15:30.300Z,2.42
2023-03-05T13:18:01.129Z,3.17
2023-03-05T13:20:34.106Z,2.70
2023-03-05T13:23:22.951Z,2.83
2023-03-05T13:26:05.733Z,3.92
2023-03-05T13:28:33.772Z,1.60
2023-03-05T13:31:03.181Z,1.38
2023-03-05T13:33:32.748Z,0.80
2023-03-05T13:36:01.688Z,1.10
2023-03-05T13:38:40.593Z,1.23
2023-03-05T13:41:21.911Z,1.60
2023-03-05T13:43:53.529Z,2.08
2023-03-05T13:46:26.293Z,2.25
2023-03-05T13:48:54.417Z,3.20
2023-03-05T13:51:22.286Z,2.13
2023-03-05T13:53:54.293Z,2.78
2023-03-05T13:56:24.756Z,2.15
2023-03-05T13:58:54.757Z,3.00
2023-03-05T14:01:30.153Z,2.37
2023-03-05T14:04:01.018Z,3.20
2023-03-05T14:06:30.940Z,4.78
2023-03-05T14:09:21.307Z,4.93
2023-03-05T14:12:03.463Z,2.20
2023-03-05T14:14:39.739Z,3.80
2023-03-05T14:17:32.404Z,4.75
2023-03-05T14:20:35.353Z,3.40
2023-03-05T14:23:03.674Z,4.55
2023-03-05T14:25:36.694Z,11.27
2023-03-05T14:28:06.072Z,11.70
2023-03-05T14:30:36.606Z,11.82
2023-03-05T14:33:07.250Z,10.95
2023-03-05T14:35:36.213Z,4.55
2023-03-05T14:38:08.496Z,8.32
2023-03-05T14:40:51.478Z,6.03
2023-03-05T14:43:19.543Z,3.05
2023-03-05T14:45:49.095Z,1.33
2023-03-05T14:48:21.381Z,2.40
2023-03-05T14:51:07.954Z,2.08
2023-03-05T14:53:47.423Z,1.67
2023-03-05T14:56:23.516Z,1.92
2023-03-05T14:58:54.373Z,2.60
2023-03-05T15:01:22.271Z,2.40
2023-03-05T15:03:50.542Z,3.13
2023-03-05T15:06:25.601Z,5.40
2023-03-05T15:08:54.437Z,4.10
2023-03-05T15:11:26.209Z,7.03
2023-03-05T15:13:54.265Z,9.07
2023-03-05T15:16:23.104Z,4.47
2023-03-05T15:18:50.946Z,2.77
2023-03-05T15:21:19.572Z,4.53
2023-03-05T15:23:47.496Z,2.17
2023-03-05T15:26:16.494Z,3.38
2023-03-05T15:28:46.428Z,4.45
2023-03-05T15:31:17.157Z,3.23
2023-03-05T15:33:44.979Z,2.88
2023-03-05T15:36:13.742Z,5.03
2023-03-05T15:38:46.639Z,4.07
2023-03-05T15:41:14.812Z,3.40
2023-03-05T15:43:42.762Z,4.37
2023-03-05T15:46:12.487Z,3.03
2023-03-05T15:48:44.090Z,2.85
2023-03-05T15:51:12.010Z,3.25
2023-03-05T15:53:39.610Z,3.72
2023-03-05T15:56:08.320Z,3.37
2023-03-05T15:58:36.264Z,4.13
2023-03-05T16:01:04.912Z,2.30
2023-03-05T16:03:34.422Z,2.53
2023-03-05T16:06:02.492Z,2.08
2023-03-05T16:08:30.308Z,3.13
2023-03-05T16:10:58.530Z,2.83
2023-03-05T16:13:29.660Z,3.20
2023-03-05T16:15:58.814Z,2.72
2023-03-05T16:18:26.846Z,4.18
2023-03-05T16:20:58.672Z,4.07
2023-03-05T16:23:26.599Z,5.07
2023-03-05T16:25:54.575Z,3.83
2023-03-05T16:28:22.327Z,2.50
2023-03-05T16:30:54.467Z,3.83
2023-03-05T16:33:22.649Z,3.97
2023-03-05T16:35:51.834Z,5.40
2023-03-05T16:38:20.896Z,4.47
2023-03-05T16:41:07.218Z,4.50
2023-03-05T16:43:36.474Z,5.60
2023-03-05T16:46:04.306Z,6.63
2023-03-05T16:48:33.041Z,3.95
2023-03-05T16:51:00.923Z,2.92
2023-03-05T16:53:30.205Z,2.67
2023-03-05T16:55:58.100Z,4.07
2023-03-05T16:58:26.869Z,2.70
2023-03-05T17:00:55.757Z,6.47
2023-03-05T17:03:23.682Z,5.88
2023-03-05T17:05:51.501Z,4.30
2023-03-05T17:08:19.338Z,3.03
2023-03-05T17:10:49.254Z,5.17
2023-03-05T17:13:18.295Z,3.17
2023-03-05T17:15:46.652Z,2.83
2023-03-05T17:18:14.169Z,4.90
2023-03-05T17:20:41.946Z,4.47
2023-03-05T17:23:09.973Z,3.60
2023-03-05T17:25:38.271Z,2.03
2023-03-05T17:28:07.289Z,2.33
2023-03-05T17:30:37.159Z,2.55
2023-03-05T17:33:05.499Z,2.65
2023-03-05T17:35:35.681Z,3.90
2023-03-05T17:38:08.452Z,4.75
2023-03-05T17:40:37.704Z,3.58
2023-03-05T17:43:07.287Z,2.75
2023-03-05T17:45:39.241Z,2.47
2023-03-05T17:48:09.374Z,3.47
2023-03-05T17:50:42.225Z,3.72
2023-03-05T17:53:13.509Z,3.95
2023-03-05T17:55:41.621Z,4.38
2023-03-05T17:58:11.057Z,3.30
2023-03-05T18:00:38.762Z,2.97
2023-03-05T18:03:07.228Z,2.58
2023-03-05T18:05:35.623Z,2.88
2023-03-05T18:08:03.661Z,3.22
2023-03-05T18:10:32.966Z,4.57
2023-03-05T18:13:01.769Z,4.60
2023-03-05T18:15:31.337Z,3.75
2023-03-05T18:18:02.890Z,3.97
2023-03-05T18:20:33.416Z,3.42
2023-03-05T18:23:03.344Z,3.30
2023-03-05T18:25:32.260Z,2.70
2023-03-05T18:28:00.471Z,2.58
2023-03-05T18:30:29.234Z,3.00
2023-03-05T18:32:58.735Z,2.22
2023-03-05T18:35:27.071Z,2.50
2023-03-05T18:37:55.115Z,3.40
2023-03-05T18:40:25.412Z,2.72
2023-03-05T18:42:53.328Z,3.28
2023-03-05T18:45:24.261Z,4.00
2023-03-05T18:47:54.579Z,4.97
2023-03-05T18:50:26.578Z,9.90
2023-03-05T18:52:55.165Z,6.05
2023-03-05T18:55:26.237Z,3.85
2023-03-05T18:57:54.650Z,4.18
2023-03-05T19:00:24.309Z,4.05
2023-03-05T19:02:52.777Z,3.97
2023-03-05T19:05:24.415Z,4.97
2023-03-05T19:07:55.598Z,5.43
2023-03-05T19:10:26.470Z,4.22
2023-03-05T19:13:05.930Z,4.10
2023-03-05T19:15:33.880Z,4.47
2023-03-05T19:18:02.067Z,4.88
2023-03-05T19:20:29.629Z,5.68
2023-03-05T19:22:59.161Z,6.65
2023-03-05T19:25:27.934Z,5.60
2023-03-05T19:27:56.082Z,6.07
2023-03-05T19:30:24.314Z,5.90
2023-03-05T19:32:52.304Z,5.00
2023-03-05T19:35:25.934Z,5.45
2023-03-05T19:37:53.779Z,4.82
2023-03-05T19:40:25.833Z,5.20
2023-03-05T19:42:53.617Z,4.35
2023-03-05T19:45:22.352Z,4.80
2023-03-05T19:47:50.318Z,4.53
2023-03-05T19:50:18.061Z,6.55
2023-03-05T19:52:45.836Z,6.07
2023-03-05T19:55:13.491Z,5.28
2023-03-05T19:57:42.555Z,5.07
2023-03-05T20:00:12.260Z,7.63
2023-03-05T20:02:49.178Z,6.38
2023-03-05T20:05:16.748Z,6.80
2023-03-05T20:07:44.496Z,6.28
2023-03-05T20:10:13.642Z,5.40
2023-03-05T20:12:44.016Z,5.28
2023-03-05T20:15:12.117Z,4.38
2023-03-05T20:17:40.384Z,4.93
2023-03-05T20:20:09.233Z,5.03
2023-03-05T20:22:37.071Z,5.20
2023-03-05T20:25:06.757Z,5.38
2023-03-05T20:27:34.601Z,4.68
2023-03-05T20:30:05.772Z,5.30
2023-03-05T20:32:33.634Z,4.15
2023-03-05T20:35:02.029Z,4.60
2023-03-05T20:37:40.200Z,4.00
2023-03-05T20:40:10.008Z,4.07
2023-03-05T20:42:37.909Z,4.13
2023-03-05T20:45:08.229Z,3.67
2023-03-05T20:47:40.721Z,3.92
2023-03-05T20:50:10.732Z,3.97
2023-03-05T20:52:39.130Z,4.22
2023-03-05T20:55:08.778Z,4.90
2023-03-05T20:57:36.958Z,4.40
2023-03-05T21:00:05.345Z,4.68
2023-03-05T21:02:34.524Z,4.05
2023-03-05T21:05:02.426Z,4.22
2023-03-05T21:07:31.094Z,4.23
2023-03-05T21:09:58.673Z,3.63
2023-03-05T21:12:26.290Z,4.93
2023-03-05T21:14:54.362Z,6.95
2023-03-05T21:17:22.190Z,6.55
2023-03-05T21:19:51.624Z,5.37
2023-03-05T21:22:19.283Z,4.55
2023-03-05T21:25:00.635Z,5.15
2023-03-05T21:27:28.894Z,3.90
2023-03-05T21:29:56.777Z,4.20
2023-03-05T21:32:24.639Z,3.93
2023-03-05T21:34:53.742Z,4.28
2023-03-05T21:37:22.002Z,4.10
2023-03-05T21:39:49.996Z,4.57
2023-03-05T21:42:18.134Z,3.67
2023-03-05T21:44:46.187Z,4.10
2023-03-05T21:47:14.195Z,4.32
2023-03-05T21:49:42.047Z,4.35
2023-03-05T21:52:13.104Z,4.22
2023-03-05T21:54:42.237Z,3.60
2023-03-05T21:57:11.286Z,3.90
2023-03-05T21:59:40.388Z,4.25
2023-03-05T22:02:12.311Z,4.22
2023-03-05T22:04:40.044Z,4.10
2023-03-05T22:07:08.517Z,3.75
2023-03-05T22:09:37.552Z,3.83
2023-03-05T22:12:07.070Z,3.50
2023-03-05T22:14:34.798Z,3.55
2023-03-05T22:17:03.489Z,4.20
2023-03-05T22:19:31.253Z,4.28
2023-03-05T22:21:59.042Z,4.20
2023-03-05T22:24:26.568Z,4.57
2023-03-05T22:26:55.729Z,4.40
2023-03-05T22:29:23.664Z,4.00
2023-03-05T22:31:51.947Z,3.97
2023-03-05T22:34:19.726Z,4.17
2023-03-05T22:36:48.085Z,4.18
2023-03-05T22:39:16.631Z,4.30
2023-03-05T22:41:44.151Z,4.22
2023-03-05T22:44:13.810Z,4.80
2023-03-05T22:46:41.781Z,4.27
2023-03-05T22:49:09.325Z,4.45
2023-03-05T22:51:37.434Z,3.90
2023-03-05T22:54:05.534Z,5.07
2023-03-05T22:56:33.302Z,4.15
2023-03-05T22:59:01.366Z,4.63
2023-03-05T23:01:30.790Z,3.92
2023-03-05T23:03:58.757Z,3.88
2023-03-05T23:06:26.598Z,4.32
2023-03-05T23:08:54.382Z,4.13
2023-03-05T23:11:22.310Z,4.10
2023-03-05T23:13:50.289Z,3.65
2023-03-05T23:16:17.928Z,3.95
2023-03-05T23:18:47.158Z,4.55
2023-03-05T23:21:15.142Z,4.15
2023-03-05T23:23:42.955Z,5.33
2023-03-05T23:26:11.234Z,5.68
2023-03-05T23:28:39.078Z,4.72
2023-03-05T23:31:06.736Z,7.68
2023-03-05T23:33:35.201Z,4.85
2023-03-05T23:36:07.699Z,4.70
2023-03-05T23:38:36.744Z,6.82
2023-03-05T23:41:08.088Z,7.20
2023-03-05T23:43:35.745Z,6.63
2023-03-05T23:46:03.815Z,5.40
2023-03-05T23:48:31.788Z,4.53
2023-03-05T23:51:00.085Z,4.45
2023-03-05T23:53:31.417Z,4.53
2023-03-05T23:55:59.426Z,4.07
2023-03-05T23:58:27.464Z,4.60
